createdAt,value
2019-03-16T00:00:45.378Z,79.00
2019-03-16T00:05:46.972Z,75.40
2019-03-16T00:10:48.682Z,70.37
2019-03-16T00:15:50.272Z,54.50
2019-03-16T00:20:51.970Z,87.40
2019-03-16T00:25:53.739Z,77.23
2019-03-16T00:30:55.473Z,58.57
2019-03-16T00:35:57.714Z,38.07
2019-03-16T00:40:59.708Z,26.07
2019-03-16T00:46:01.605Z,25.33
2019-03-16T00:51:03.364Z,37.30
2019-03-16T00:56:05.184Z,40.27
2019-03-16T01:01:06.886Z,58.77
2019-03-16T01:06:09.383Z,36.87
2019-03-16T01:11:11.222Z,26.23
2019-03-16T01:16:12.914Z,27.87
2019-03-16T01:21:14.588Z,30.07
2019-03-16T01:26:16.273Z,23.20
2019-03-16T01:31:17.967Z,25.20
2019-03-16T01:36:19.651Z,25.13
2019-03-16T01:41:21.660Z,40.37
2019-03-16T01:46:23.499Z,43.90
2019-03-16T01:51:25.270Z,63.13
2019-03-16T01:56:27.164Z,29.90
2019-03-16T02:01:29.355Z,40.97
2019-03-16T02:06:31.082Z,41.63
2019-03-16T02:11:33.176Z,32.53
2019-03-16T02:16:34.860Z,37.93
2019-03-16T02:21:36.566Z,48.73
2019-03-16T02:26:38.261Z,72.90
2019-03-16T02:31:40.559Z,42.23
2019-03-16T02:36:50.918Z,54.27
2019-03-16T02:41:53.151Z,66.00
2019-03-16T02:46:54.927Z,74.93
2019-03-16T02:51:57.052Z,88.20
2019-03-16T02:56:58.799Z,65.27
2019-03-16T03:02:00.866Z,76.60
2019-03-16T03:07:02.662Z,100.27
2019-03-16T03:12:04.350Z,74.00
2019-03-16T03:17:05.978Z,71.10
2019-03-16T03:22:07.748Z,82.70
2019-03-16T03:27:09.760Z,76.17
2019-03-16T03:32:11.433Z,90.20
2019-03-16T03:37:13.136Z,83.67
2019-03-16T03:42:14.803Z,100.30
2019-03-16T03:47:16.509Z,80.67
2019-03-16T03:52:18.219Z,100.73
2019-03-16T03:57:20.052Z,99.30
2019-03-16T04:02:21.645Z,112.07
2019-03-16T04:07:23.298Z,65.37
2019-03-16T04:12:25.009Z,74.20
2019-03-16T04:17:26.894Z,85.73
2019-03-16T04:22:28.670Z,72.40
2019-03-16T04:27:30.326Z,82.30
2019-03-16T04:32:32.067Z,112.80
2019-03-16T04:37:34.003Z,95.33
2019-03-16T04:42:35.970Z,106.17
2019-03-16T04:47:37.742Z,101.80
2019-03-16T04:52:39.441Z,100.67
2019-03-16T04:57:41.133Z,81.83
2019-03-16T05:02:42.749Z,80.67
2019-03-16T05:07:44.442Z,103.20
2019-03-16T05:12:46.452Z,74.83
2019-03-16T05:17:48.057Z,93.13
2019-03-16T05:22:50.040Z,105.47
2019-03-16T05:27:51.735Z,88.63
2019-03-16T05:32:53.445Z,49.13
2019-03-16T05:37:55.239Z,87.63
2019-03-16T05:42:57.508Z,82.93
2019-03-16T05:47:59.254Z,82.70
2019-03-16T05:53:00.947Z,86.90
2019-03-16T05:58:02.633Z,93.23
2019-03-16T06:03:04.221Z,99.97
2019-03-16T06:08:05.933Z,85.43
2019-03-16T06:13:07.587Z,90.27
2019-03-16T06:18:09.435Z,70.00
2019-03-16T06:23:11.120Z,79.43
2019-03-16T06:28:13.017Z,90.83
2019-03-16T06:33:15.225Z,90.03
2019-03-16T06:38:16.922Z,97.57
2019-03-16T06:43:19.240Z,83.03
2019-03-16T06:48:21.447Z,92.77
2019-03-16T06:53:23.476Z,55.40
2019-03-16T06:58:25.143Z,87.53
2019-03-16T07:03:26.843Z,83.53
2019-03-16T07:08:28.536Z,72.03
2019-03-16T07:13:30.143Z,77.80
2019-03-16T07:18:31.840Z,60.47
2019-03-16T07:23:33.780Z,73.77
2019-03-16T07:28:35.645Z,79.50
2019-03-16T07:33:37.443Z,87.03
2019-03-16T07:38:39.645Z,74.93
2019-03-16T07:43:42.652Z,70.87
2019-03-16T07:48:44.475Z,64.30
2019-03-16T07:53:46.173Z,73.80
2019-03-16T07:58:47.947Z,58.10
2019-03-16T08:03:49.764Z,72.93
2019-03-16T08:08:51.860Z,72.37
2019-03-16T08:13:53.487Z,70.57
2019-03-16T08:18:55.198Z,71.57
2019-03-16T08:23:56.868Z,50.70
2019-03-16T08:28:59.324Z,80.13
2019-03-16T08:34:01.183Z,72.90
2019-03-16T08:39:05.401Z,58.43
2019-03-16T08:44:07.486Z,77.27
2019-03-16T08:49:09.265Z,58.87
2019-03-16T08:54:10.943Z,41.30
2019-03-16T08:59:12.661Z,53.77
2019-03-16T09:04:14.356Z,59.57
2019-03-16T09:09:16.441Z,47.40
2019-03-16T09:14:18.226Z,35.77
2019-03-16T09:19:19.891Z,49.23
2019-03-16T09:24:21.480Z,65.87
2019-03-16T09:29:23.179Z,57.17
2019-03-16T09:34:24.767Z,62.60
2019-03-16T09:39:26.850Z,55.07
2019-03-16T09:44:29.096Z,47.40
2019-03-16T09:49:30.819Z,69.63
2019-03-16T09:54:32.438Z,47.00
2019-03-16T09:59:34.227Z,41.10
2019-03-16T10:04:35.953Z,38.53
2019-03-16T10:09:38.465Z,46.30
2019-03-16T10:14:40.103Z,45.67
2019-03-16T10:19:41.753Z,56.17
2019-03-16T10:24:48.650Z,30.73
2019-03-16T10:29:50.685Z,44.80
2019-03-16T10:34:52.349Z,55.17
2019-03-16T10:39:54.503Z,41.03
2019-03-16T10:44:56.698Z,44.33
2019-03-16T10:49:58.423Z,35.97
2019-03-16T10:55:00.353Z,34.47
2019-03-16T11:00:04.070Z,35.60
2019-03-16T11:05:05.723Z,46.67
2019-03-16T11:10:11.546Z,23.40
2019-03-16T11:15:13.381Z,22.60
2019-03-16T11:20:16.425Z,14.90
2019-03-16T11:25:18.944Z,6.27
2019-03-16T11:30:21.058Z,5.50
2019-03-16T11:35:22.764Z,13.80
2019-03-16T11:40:24.537Z,8.43
2019-03-16T11:45:26.588Z,12.43
2019-03-16T11:50:28.332Z,9.87
2019-03-16T11:55:30.382Z,18.63
2019-03-16T12:00:32.111Z,7.80
2019-03-16T12:05:33.967Z,11.07
2019-03-16T12:10:35.584Z,25.73
2019-03-16T12:15:37.272Z,25.33
2019-03-16T12:20:38.985Z,18.20
2019-03-16T12:25:40.995Z,13.10
2019-03-16T12:30:43.243Z,9.97
2019-03-16T12:35:44.891Z,2.33
2019-03-16T12:40:46.626Z,16.17
2019-03-16T12:45:49.660Z,10.23
2019-03-16T12:50:54.318Z,6.90
2019-03-16T12:55:55.533Z,11.17
2019-03-16T13:00:57.357Z,10.87
2019-03-16T13:05:58.981Z,5.93
2019-03-16T13:11:01.268Z,22.57
2019-03-16T13:16:03.380Z,18.07
2019-03-16T13:21:05.033Z,3.40
2019-03-16T13:26:07.303Z,7.83
2019-03-16T13:31:09.113Z,2.50
2019-03-16T13:36:10.756Z,14.43
2019-03-16T13:41:12.514Z,3.37
2019-03-16T13:46:14.636Z,3.93
2019-03-16T13:51:16.747Z,3.20
2019-03-16T13:56:18.860Z,5.50
2019-03-16T14:01:20.880Z,1.90
2019-03-16T14:06:22.581Z,2.73
2019-03-16T14:11:24.286Z,1.37
2019-03-16T14:16:26.019Z,1.37
2019-03-16T14:21:27.915Z,2.20
2019-03-16T14:26:30.188Z,3.00
2019-03-16T14:31:32.473Z,1.10
2019-03-16T14:36:34.194Z,1.20
2019-03-16T14:41:36.083Z,1.90
2019-03-16T14:46:41.732Z,2.10
2019-03-16T14:51:43.919Z,5.80
2019-03-16T14:56:53.659Z,1.13
2019-03-16T15:01:56.540Z,2.57
2019-03-16T15:06:58.154Z,5.20
2019-03-16T15:11:59.997Z,1.60
2019-03-16T15:17:02.049Z,1.50
2019-03-16T15:22:13.624Z,2.27
2019-03-16T15:27:24.443Z,1.90
2019-03-16T15:32:26.816Z,1.30
2019-03-16T15:37:29.442Z,0.70
2019-03-16T15:42:31.268Z,1.73
2019-03-16T15:47:33.475Z,7.03
2019-03-16T15:52:38.541Z,1.83
2019-03-16T15:57:42.731Z,1.60
2019-03-16T16:02:46.598Z,1.83
2019-03-16T16:07:49.880Z,1.60
2019-03-16T16:12:52.037Z,1.57
2019-03-16T16:17:53.785Z,3.33
2019-03-16T16:22:56.584Z,2.10
2019-03-16T16:27:59.527Z,1.90
2019-03-16T16:33:02.379Z,1.53
2019-03-16T16:38:04.666Z,1.97
2019-03-16T16:43:11.455Z,3.00
2019-03-16T16:48:14.091Z,3.57
2019-03-16T16:53:15.973Z,7.93
2019-03-16T16:58:18.571Z,29.00
2019-03-16T17:03:21.336Z,27.03
2019-03-16T17:08:42.973Z,32.50
2019-03-16T17:13:44.826Z,33.90
2019-03-16T17:18:49.453Z,35.17
2019-03-16T17:23:52.211Z,35.10
2019-03-16T17:28:55.202Z,39.00
2019-03-16T17:33:57.218Z,56.47
2019-03-16T17:38:59.267Z,35.00
2019-03-16T17:44:01.246Z,43.57
2019-03-16T17:49:03.923Z,32.77
2019-03-16T17:54:06.368Z,42.33
2019-03-16T17:59:08.883Z,27.23
2019-03-16T18:04:11.299Z,55.10
2019-03-16T18:09:13.957Z,35.17
2019-03-16T18:14:18.007Z,36.47
2019-03-16T18:19:21.458Z,39.07
2019-03-16T18:24:23.666Z,54.77
2019-03-16T18:29:25.837Z,36.60
2019-03-16T18:34:28.546Z,53.70
2019-03-16T18:39:31.837Z,27.67
2019-03-16T18:44:35.873Z,39.97
2019-03-16T18:49:39.616Z,54.63
2019-03-16T18:54:45.012Z,54.53
2019-03-16T18:59:47.117Z,43.53
2019-03-16T19:04:51.801Z,40.47
2019-03-16T19:09:54.838Z,56.73
2019-03-16T19:14:58.025Z,64.73
2019-03-16T19:20:00.376Z,51.60
2019-03-16T19:25:06.659Z,51.33
2019-03-16T19:30:15.650Z,45.00
2019-03-16T19:35:18.284Z,40.40
2019-03-16T19:40:22.445Z,51.77
2019-03-16T19:45:24.498Z,38.17
2019-03-16T19:50:26.872Z,49.00
2019-03-16T19:55:29.703Z,35.97
2019-03-16T20:00:34.558Z,53.33
2019-03-16T20:05:43.553Z,55.33
2019-03-16T20:10:46.146Z,51.60
2019-03-16T20:15:49.222Z,43.23
2019-03-16T20:20:52.549Z,55.13
2019-03-16T20:25:54.755Z,47.50
2019-03-16T20:30:57.879Z,52.77
2019-03-16T20:36:00.004Z,63.77
2019-03-16T20:41:01.969Z,50.37
2019-03-16T20:46:03.891Z,60.80
2019-03-16T20:51:06.343Z,63.70
2019-03-16T20:56:09.066Z,104.93
2019-03-16T21:01:11.172Z,122.83
2019-03-16T21:06:15.075Z,103.37
2019-03-16T21:11:16.785Z,91.80
2019-03-16T21:16:18.670Z,82.93
2019-03-16T21:21:20.898Z,130.80
2019-03-16T21:26:23.042Z,92.80
2019-03-16T21:31:24.898Z,91.83
2019-03-16T21:36:26.690Z,108.03
2019-03-16T21:41:28.503Z,78.63
2019-03-16T21:46:32.955Z,53.47
2019-03-16T21:51:37.836Z,55.03
2019-03-16T21:56:39.611Z,79.87
2019-03-16T22:01:41.299Z,52.73
2019-03-16T22:06:43.214Z,65.73
2019-03-16T22:11:45.016Z,54.23
2019-03-16T22:16:47.619Z,69.80
2019-03-16T22:21:49.425Z,53.73
2019-03-16T22:26:51.226Z,60.93
2019-03-16T22:31:52.933Z,55.53
2019-03-16T22:36:54.728Z,52.93
2019-03-16T22:41:56.533Z,44.70
2019-03-16T22:46:58.332Z,67.97
2019-03-16T22:52:00.442Z,64.37
2019-03-16T22:57:02.444Z,55.13
2019-03-16T23:02:04.808Z,61.53
2019-03-16T23:07:06.567Z,38.73
2019-03-16T23:12:08.222Z,48.30
2019-03-16T23:17:09.904Z,54.93
2019-03-16T23:22:11.500Z,51.90
2019-03-16T23:27:13.163Z,46.30
2019-03-16T23:32:14.818Z,57.97
2019-03-16T23:37:16.564Z,38.63
2019-03-16T23:42:18.316Z,39.37
2019-03-16T23:47:20.576Z,46.37
2019-03-16T23:52:22.752Z,44.63
2019-03-16T23:57:24.489Z,34.17
